Time;durP1;ratioP1;P1;durP2;ratioP2;P2;SDS_P1;SDS_P2;PMS_P1;PMS_P2;Temp;Humidity;BMP_temperature;BMP_pressure;BME280_temperature;BME280_humidity;BME280_pressure;Samples;Min_cycle;Max_cycle;Signal;HPM_P1;HPM_P2
2022/12/30 00:03:07;;;;;;;12.20;8.80;;;;;;;4.01;81.83;99001.86;435333;1281;143194;-62
2022/12/30 00:34:02;;;;;;;11.50;8.90;;;;;;;3.55;83.44;99028.32;432294;1274;142238;-61
2022/12/30 00:44:08;;;;;;;16.80;9.20;;;;;;;3.48;83.72;99024.30;436194;1274;142801;-60
2022/12/30 01:04:38;;;;;;;10.80;8.20;;;;;;;3.39;84.18;99022.42;421253;1275;141387;-60
2022/12/30 01:14:45;;;;;;;15.10;9.40;;;;;;;3.42;84.62;99028.87;433774;1275;162245;-61
2022/12/30 01:24:51;;;;;;;12.20;8.20;;;;;;;3.40;84.79;99036.78;435554;1281;142937;-61
2022/12/30 01:34:58;;;;;;;12.90;10.40;;;;;;;3.40;85.01;99029.85;436057;1283;143530;-61
2022/12/30 01:45:18;;;;;;;11.40;9.00;;;;;;;3.46;84.99;99020.77;434386;1280;142119;-60
2022/12/30 01:55:29;;;;;;;16.20;8.60;;;;;;;3.59;85.24;99039.55;435892;1274;211999;-61
2022/12/30 02:05:40;;;;;;;13.70;9.30;;;;;;;3.79;85.40;99040.43;423650;1278;142453;-60
2022/12/30 02:15:59;;;;;;;13.50;9.30;;;;;;;3.98;85.26;99046.00;431085;1278;143504;-61
2022/12/30 02:26:37;;;;;;;11.10;9.00;;;;;;;4.14;85.31;99057.38;425598;1275;142891;-60
2022/12/30 02:36:52;;;;;;;13.80;9.60;;;;;;;4.25;84.85;99055.13;430133;1275;142241;-60
2022/12/30 02:47:04;;;;;;;13.50;9.70;;;;;;;4.16;84.66;99052.45;423508;1274;141222;-63
2022/12/30 02:57:25;;;;;;;14.60;9.30;;;;;;;4.01;84.53;99052.97;435264;1271;153886;-63
2022/12/30 03:07:38;;;;;;;10.30;8.20;;;;;;;3.87;84.86;99057.90;431271;1274;142075;-64
2022/12/30 03:17:46;;;;;;;8.60;7.70;;;;;;;3.88;85.34;99069.48;428327;1274;141833;-63
2022/12/30 03:27:52;;;;;;;12.20;8.80;;;;;;;4.01;85.30;99087.93;435663;1275;145272;-64
2022/12/30 03:38:00;;;;;;;14.10;8.40;;;;;;;4.11;85.34;99079.16;427534;1274;141680;-63
2022/12/30 03:48:06;;;;;;;10.10;8.40;;;;;;;4.04;85.28;99081.05;427453;1281;141611;-63
2022/12/30 03:58:15;;;;;;;11.20;8.70;;;;;;;3.81;85.37;99088.29;424590;1275;142312;-64
2022/12/30 04:08:22;;;;;;;10.40;7.80;;;;;;;3.71;86.10;99097.89;423028;1274;142644;-63
2022/12/30 04:18:27;;;;;;;9.60;7.50;;;;;;;3.74;86.24;99118.04;428816;1281;141572;-64
2022/12/30 04:28:33;;;;;;;13.00;8.00;;;;;;;3.85;86.48;99125.02;434614;1275;141681;-64
2022/12/30 04:38:39;;;;;;;12.60;8.20;;;;;;;4.01;86.68;99124.30;419875;1278;142365;-62
2022/12/30 04:48:45;;;;;;;11.00;8.00;;;;;;;4.18;86.56;99125.80;419077;1275;143454;-63
2022/12/30 04:59:00;;;;;;;8.10;6.60;;;;;;;4.31;86.75;99132.88;427951;1274;142399;-64
2022/12/30 05:09:06;;;;;;;10.60;8.20;;;;;;;4.43;86.59;99143.58;426936;1274;141039;-62
2022/12/30 05:19:13;;;;;;;11.40;8.20;;;;;;;4.48;86.57;99153.39;426031;1275;143640;-63
2022/12/30 05:29:19;;;;;;;13.60;9.50;;;;;;;4.54;86.52;99163.17;429478;1275;141718;-64
2022/12/30 05:39:25;;;;;;;10.40;8.20;;;;;;;4.60;86.56;99174.38;427543;1280;141616;-64
2022/12/30 05:49:31;;;;;;;10.80;7.50;;;;;;;4.58;86.65;99202.19;425156;1280;142177;-62
2022/12/30 05:59:37;;;;;;;12.30;9.60;;;;;;;4.60;86.49;99205.02;420199;1281;142959;-64
2022/12/30 06:09:43;;;;;;;12.80;8.50;;;;;;;4.61;86.60;99215.20;434617;1281;143532;-64
2022/12/30 06:19:50;;;;;;;10.40;7.40;;;;;;;4.53;86.64;99227.36;423839;1276;141279;-64
2022/12/30 06:29:55;;;;;;;9.70;8.00;;;;;;;4.42;86.86;99235.83;426224;1274;142363;-64
2022/12/30 06:40:02;;;;;;;13.60;10.30;;;;;;;4.36;87.16;99255.50;431399;1275;141495;-64
2022/12/30 06:50:09;;;;;;;12.90;11.60;;;;;;;4.35;87.33;99277.02;425938;1282;141603;-63
2022/12/30 07:00:16;;;;;;;12.00;9.90;;;;;;;4.37;87.52;99294.61;423073;1271;184233;-63
2022/12/30 07:10:23;;;;;;;11.30;8.60;;;;;;;4.36;87.42;99314.75;419784;1280;142879;-62
2022/12/30 07:20:29;;;;;;;11.40;9.10;;;;;;;4.39;87.68;99325.56;434312;1276;141453;-63
2022/12/30 07:30:35;;;;;;;15.30;9.50;;;;;;;4.44;87.69;99332.79;435404;1281;143430;-63
2022/12/30 07:40:41;;;;;;;17.40;9.60;;;;;;;4.59;88.02;99344.98;436285;1280;141642;-63
2022/12/30 07:50:47;;;;;;;12.30;8.50;;;;;;;5.03;87.74;99357.14;436230;1280;142249;-63
2022/12/30 08:00:53;;;;;;;13.90;8.60;;;;;;;5.28;87.12;99371.98;421518;1275;142459;-63
2022/12/30 08:11:00;;;;;;;9.60;7.60;;;;;;;5.81;87.03;99375.57;421293;1274;142504;-64
2022/12/30 08:21:08;;;;;;;12.40;8.60;;;;;;;8.04;84.96;99390.56;426429;1278;142885;-62
2022/12/30 08:31:16;;;;;;;12.60;8.60;;;;;;;9.27;82.54;99401.23;435999;1279;198136;-64
2022/12/30 08:41:24;;;;;;;10.40;7.30;;;;;;;10.83;79.69;99419.42;436274;1275;141656;-64
2022/12/30 08:51:31;;;;;;;9.30;7.20;;;;;;;11.55;77.04;99439.23;435529;1282;141705;-64
2022/12/30 09:01:38;;;;;;;9.80;6.40;;;;;;;11.75;75.28;99457.15;436238;1284;141665;-64
2022/12/30 09:11:45;;;;;;;7.40;6.00;;;;;;;12.21;73.67;99475.23;436388;1280;141304;-63
2022/12/30 09:21:52;;;;;;;7.70;5.40;;;;;;;14.29;71.62;99472.38;423891;1272;192677;-63
2022/12/30 09:31:57;;;;;;;4.70;3.70;;;;;;;15.96;67.58;99474.66;432684;1281;140904;-63
2022/12/30 09:52:33;;;;;;;6.00;3.90;;;;;;;12.18;66.99;99486.84;436025;1281;209619;-63
2022/12/30 10:02:52;;;;;;;9.60;4.30;;;;;;;11.16;68.50;99483.11;430416;1281;141213;-63
2022/12/30 10:13:07;;;;;;;8.10;3.20;;;;;;;10.28;68.66;99482.89;424980;1281;141473;-64
2022/12/30 10:23:29;;;;;;;7.00;3.30;;;;;;;9.31;69.33;99489.37;434704;1281;142294;-63
2022/12/30 10:33:36;;;;;;;5.90;2.20;;;;;;;8.78;70.47;99499.48;435493;1281;141217;-64
2022/12/30 10:43:53;;;;;;;5.60;1.50;;;;;;;8.46;70.32;99512.59;433213;1282;141684;-63
2022/12/30 10:54:00;;;;;;;16.20;3.00;;;;;;;8.26;70.54;99509.52;431590;1281;141233;-63
2022/12/30 11:04:07;;;;;;;9.50;3.00;;;;;;;8.17;70.95;99504.42;421878;1278;141380;-62
2022/12/30 11:24:55;;;;;;;5.60;1.80;;;;;;;7.95;71.77;99510.13;424638;1285;140578;-63
2022/12/30 11:35:01;;;;;;;4.00;1.80;;;;;;;7.94;71.51;99513.02;436199;1289;141019;-63
2022/12/30 11:45:19;;;;;;;9.10;2.20;;;;;;;7.93;71.73;99516.56;435531;1280;140835;-63
2022/12/30 11:55:26;;;;;;;8.70;2.50;;;;;;;7.98;70.95;99538.02;436339;1282;142013;-63
2022/12/30 12:05:39;;;;;;;7.50;1.60;;;;;;;7.76;71.20;99539.41;436307;1289;140308;-63
2022/12/30 12:15:49;;;;;;;7.00;2.40;;;;;;;7.59;71.43;99531.91;435555;1282;142497;-63
2022/12/30 12:26:04;;;;;;;4.50;2.10;;;;;;;7.56;71.67;99526.48;436342;1280;142909;-62
2022/12/30 12:36:21;;;;;;;5.10;2.30;;;;;;;7.62;71.69;99517.83;435648;1284;140783;-64
2022/12/30 12:46:40;;;;;;;5.80;2.10;;;;;;;7.52;71.88;99516.23;436267;1284;140631;-62
2022/12/30 12:57:01;;;;;;;5.40;2.10;;;;;;;7.38;71.72;99510.52;436272;1287;142199;-63
2022/12/30 13:07:25;;;;;;;9.20;1.80;;;;;;;7.30;71.71;99510.59;435803;1289;207302;-64
2022/12/30 13:17:55;;;;;;;7.40;3.70;;;;;;;7.21;71.66;99525.66;436109;1288;142240;-63
2022/12/30 13:28:01;;;;;;;7.50;2.50;;;;;;;7.13;71.77;99522.07;435580;1282;143148;-63
2022/12/30 13:38:19;;;;;;;4.90;1.70;;;;;;;7.03;71.83;99525.52;436336;1282;141903;-63
2022/12/30 13:48:28;;;;;;;9.30;2.00;;;;;;;6.89;71.93;99543.10;435274;1280;142865;-63
2022/12/30 13:58:37;;;;;;;4.70;2.30;;;;;;;6.70;72.03;99528.73;436235;1284;141795;-63
2022/12/30 14:09:09;;;;;;;7.40;3.00;;;;;;;6.47;72.34;99547.19;435945;1280;141862;-63
2022/12/30 14:19:36;;;;;;;11.70;4.10;;;;;;;6.06;73.14;99565.94;435670;1281;196852;-63
2022/12/30 14:29:42;;;;;;;12.60;5.40;;;;;;;5.59;73.61;99568.87;436098;1283;142334;-63
2022/12/30 14:39:48;;;;;;;21.00;6.50;;;;;;;5.12;74.46;99568.92;435406;1275;141853;-63
2022/12/30 14:49:59;;;;;;;17.80;10.60;;;;;;;4.65;75.08;99576.20;436248;1283;142469;-62
2022/12/30 15:00:20;;;;;;;27.50;13.70;;;;;;;4.30;76.08;99586.26;427729;1281;141558;-63
2022/12/30 15:10:37;;;;;;;27.40;12.30;;;;;;;3.87;76.66;99584.33;436013;1283;197206;-63
2022/12/30 15:20:43;;;;;;;38.30;21.20;;;;;;;3.47;77.37;99580.04;436525;1281;145437;-64
2022/12/30 15:30:51;;;;;;;38.10;20.40;;;;;;;3.14;78.24;99587.72;435741;1274;142426;-63
2022/12/30 15:41:01;;;;;;;47.30;23.80;;;;;;;2.93;79.18;99586.35;436531;1274;142171;-63
2022/12/30 15:51:13;;;;;;;39.00;24.00;;;;;;;2.70;79.33;99590.16;433840;1281;142890;-63
2022/12/30 16:01:22;;;;;;;49.00;27.00;;;;;;;2.42;79.96;99597.94;432830;1276;197579;-65
2022/12/30 16:11:33;;;;;;;51.50;25.70;;;;;;;2.11;80.45;99605.40;436327;1274;142324;-65
2022/12/30 16:22:01;;;;;;;54.80;31.50;;;;;;;1.81;80.83;99619.17;435670;1281;141510;-65
2022/12/30 16:32:14;;;;;;;50.40;33.00;;;;;;;1.58;81.06;99613.59;429678;1282;143282;-64
2022/12/30 16:42:20;;;;;;;63.20;37.50;;;;;;;1.38;81.87;99618.43;421526;1281;141856;-64
2022/12/30 16:52:26;;;;;;;69.30;43.80;;;;;;;1.22;82.64;99615.20;436034;1281;141928;-63
2022/12/30 17:02:32;;;;;;;78.70;44.10;;;;;;;1.18;83.61;99600.29;436260;1277;142906;-63
2022/12/30 17:12:39;;;;;;;50.60;27.50;;;;;;;1.12;84.02;99587.16;435546;1274;143867;-63
2022/12/30 17:22:46;;;;;;;60.10;33.60;;;;;;;1.15;84.92;99581.26;436383;1280;142374;-63
2022/12/30 17:32:53;;;;;;;45.00;27.80;;;;;;;1.12;85.45;99597.69;432221;1274;142662;-62
2022/12/30 17:42:59;;;;;;;35.40;21.70;;;;;;;1.20;86.30;99595.08;422250;1273;141448;-63
2022/12/30 17:53:04;;;;;;;29.80;17.00;;;;;;;1.22;86.70;99577.08;433106;1275;141540;-63
2022/12/30 18:03:13;;;;;;;38.60;23.80;;;;;;;1.37;87.60;99567.75;435779;1282;167939;-63
2022/12/30 18:13:19;;;;;;;31.30;19.40;;;;;;;1.55;88.25;99560.02;436382;1281;142517;-64
2022/12/30 18:23:25;;;;;;;27.30;18.80;;;;;;;1.61;88.57;99575.38;436276;1281;142375;-64
2022/12/30 18:33:31;;;;;;;28.20;19.00;;;;;;;1.64;89.34;99568.40;431769;1274;142174;-64
2022/12/30 18:43:37;;;;;;;29.10;17.90;;;;;;;1.67;89.81;99554.51;436180;1281;141706;-62
2022/12/30 18:53:43;;;;;;;30.10;19.70;;;;;;;1.67;90.10;99549.67;436283;1281;141555;-64
2022/12/30 19:03:50;;;;;;;62.40;33.00;;;;;;;1.67;90.81;99540.02;435811;1282;143870;-64
2022/12/30 19:13:58;;;;;;;57.50;24.30;;;;;;;1.69;91.06;99534.44;436356;1280;141853;-63
2022/12/30 19:24:05;;;;;;;31.60;20.40;;;;;;;1.72;91.36;99538.48;436515;1281;142953;-62
2022/12/30 19:34:15;;;;;;;31.40;20.50;;;;;;;1.69;91.54;99536.51;436008;1282;200048;-62
2022/12/30 19:44:23;;;;;;;36.40;22.70;;;;;;;1.66;91.95;99540.74;436457;1274;142912;-63
2022/12/30 19:54:29;;;;;;;33.90;23.70;;;;;;;1.70;92.62;99541.83;435887;1274;142736;-64
2022/12/30 20:04:35;;;;;;;37.40;23.60;;;;;;;1.71;92.63;99539.55;436580;1280;143202;-64
2022/12/30 20:14:41;;;;;;;44.00;27.00;;;;;;;1.69;92.86;99542.02;436251;1281;143365;-63
2022/12/30 20:24:47;;;;;;;38.10;25.70;;;;;;;1.65;93.20;99535.56;435817;1280;142168;-63
2022/12/30 20:34:53;;;;;;;43.00;27.90;;;;;;;1.61;93.37;99527.92;435965;1274;143792;-63
2022/12/30 20:44:59;;;;;;;37.80;26.20;;;;;;;1.63;93.76;99505.77;436009;1281;142830;-63
2022/12/30 20:55:06;;;;;;;35.20;26.70;;;;;;;1.71;94.15;99486.06;427042;1273;142022;-64
2022/12/30 21:05:12;;;;;;;40.90;28.70;;;;;;;1.81;94.46;99484.54;434459;1281;141890;-62
2022/12/30 21:15:40;;;;;;;33.70;24.30;;;;;;;1.90;94.38;99486.02;423149;1274;141500;-64
2022/12/30 21:25:46;;;;;;;35.20;25.10;;;;;;;1.89;94.40;99472.94;419410;1274;143951;-64
2022/12/30 21:35:53;;;;;;;26.40;20.10;;;;;;;1.97;94.78;99455.24;436352;1281;141817;-63
2022/12/30 22:06:49;;;;;;;27.80;21.80;;;;;;;2.12;94.59;99395.36;434918;1282;141716;-63
2022/12/30 22:16:55;;;;;;;32.00;22.70;;;;;;;2.12;94.50;99386.22;436482;1281;142155;-64
2022/12/30 22:27:01;;;;;;;26.90;19.90;;;;;;;2.09;94.76;99363.34;436314;1274;141956;-64
2022/12/30 22:37:08;;;;;;;28.50;19.20;;;;;;;2.05;94.41;99369.17;429596;1281;210334;-64
2022/12/30 22:47:17;;;;;;;32.20;21.80;;;;;;;2.10;94.81;99363.67;424698;1275;142549;-63
2022/12/30 22:57:23;;;;;;;31.30;21.70;;;;;;;2.27;94.67;99351.38;435506;1283;142043;-64
2022/12/30 23:07:29;;;;;;;26.90;20.30;;;;;;;2.28;94.54;99355.64;436429;1281;141600;-63
2022/12/30 23:17:35;;;;;;;31.70;23.90;;;;;;;2.26;94.38;99348.65;432567;1280;142387;-63
2022/12/30 23:27:41;;;;;;;28.80;20.00;;;;;;;2.25;94.37;99338.84;435657;1281;141946;-63
2022/12/30 23:37:47;;;;;;;32.40;19.60;;;;;;;2.34;94.58;99322.98;436223;1281;141285;-63
2022/12/30 23:47:53;;;;;;;30.40;18.40;;;;;;;2.44;94.47;99303.45;436380;1282;142690;-63
2022/12/30 23:57:59;;;;;;;28.50;20.90;;;;;;;2.49;94.05;99283.23;432957;1281;142533;-63
